Terminal Aerodrome Forecast
Issued by NWS Wilmington, NC

Home | Current Version | Previous Version | Text Only | Print | Product List | Glossary On
Versions: 1 2 3 4 5 6 7 8 9 10 11 12 13 14 15 16 17 18 19 20 21
000
FTUS42 KILM 251720
TAFLBT
TAF
KLBT 251720Z 2518/2618 24007KT P6SM VCSH BKN012
     FM252000 26008KT P6SM BKN008
     FM261300 00000KT P6SM SCT040
     FM261600 25007KT P6SM FEW035=

USA.gov is the U.S. government's official web portal to all federal, state and local government web resources and services.